createdAt,value
2022-09-24T00:01:30.837Z,30.55
2022-09-24T00:04:00.800Z,16.30
2022-09-24T00:06:29.801Z,16.17
2022-09-24T00:08:57.848Z,16.37
2022-09-24T00:11:26.776Z,15.40
2022-09-24T00:13:55.575Z,14.93
2022-09-24T00:16:25.819Z,13.88
2022-09-24T00:18:53.721Z,11.20
2022-09-24T00:21:24.172Z,9.82
2022-09-24T00:23:53.756Z,14.45
2022-09-24T00:26:39.768Z,16.25
2022-09-24T00:29:08.216Z,15.00
2022-09-24T00:31:35.235Z,11.35
2022-09-24T00:34:02.775Z,13.40
2022-09-24T00:36:29.731Z,11.63
2022-09-24T00:38:59.708Z,13.45
2022-09-24T00:41:32.589Z,14.70
2022-09-24T00:44:00.039Z,17.13
2022-09-24T00:46:40.958Z,15.82
2022-09-24T00:49:17.729Z,17.35
2022-09-24T00:51:47.768Z,16.33
2022-09-24T00:54:23.198Z,15.50
2022-09-24T00:56:52.597Z,17.17
2022-09-24T00:59:24.025Z,16.95
2022-09-24T01:01:57.780Z,15.30
2022-09-24T01:04:27.697Z,13.50
2022-09-24T01:09:24.282Z,36.13
2022-09-24T01:12:14.600Z,36.40
2022-09-24T01:15:01.984Z,24.75
2022-09-24T01:17:53.055Z,25.85
2022-09-24T01:20:55.191Z,30.95
2022-09-24T01:23:50.490Z,23.25
2022-09-24T01:26:36.938Z,17.08
2022-09-24T01:29:30.251Z,19.42
2022-09-24T01:32:13.388Z,21.88
2022-09-24T01:34:50.502Z,16.55
2022-09-24T01:37:20.663Z,18.38
2022-09-24T01:39:48.537Z,18.13
2022-09-24T01:42:16.624Z,19.75
2022-09-24T01:44:44.762Z,15.30
2022-09-24T01:47:22.633Z,18.35
2022-09-24T01:49:51.542Z,15.90
2022-09-24T01:52:25.320Z,17.63
2022-09-24T01:54:55.407Z,14.20
2022-09-24T01:57:30.176Z,15.43
2022-09-24T02:00:10.409Z,16.50
2022-09-24T02:02:54.027Z,13.73
2022-09-24T02:05:33.749Z,17.92
2022-09-24T02:08:12.056Z,14.13
2022-09-24T02:10:51.104Z,14.82
2022-09-24T02:13:20.999Z,15.35
2022-09-24T02:15:52.564Z,15.05
2022-09-24T02:18:24.356Z,17.27
2022-09-24T02:20:52.719Z,17.50
2022-09-24T02:23:20.844Z,15.90
2022-09-24T02:25:54.560Z,24.00
2022-09-24T02:28:21.744Z,23.77
2022-09-24T02:31:08.806Z,20.38
2022-09-24T02:33:57.349Z,28.42
2022-09-24T02:36:25.100Z,23.98
2022-09-24T02:38:53.280Z,25.58
2022-09-24T02:41:23.553Z,23.50
2022-09-24T02:43:51.750Z,26.67
2022-09-24T02:46:19.241Z,22.48
2022-09-24T02:48:46.219Z,25.38
2022-09-24T02:51:13.171Z,25.70
2022-09-24T02:53:40.128Z,23.02
2022-09-24T02:56:08.070Z,23.25
2022-09-24T02:58:37.507Z,24.00
2022-09-24T03:01:05.521Z,20.83
2022-09-24T03:03:32.766Z,28.77
2022-09-24T03:05:59.746Z,28.13
2022-09-24T03:08:27.713Z,26.58
2022-09-24T03:10:56.289Z,29.30
2022-09-24T03:13:23.505Z,33.17
2022-09-24T03:15:50.684Z,25.80
2022-09-24T03:18:17.738Z,21.02
2022-09-24T03:20:53.913Z,26.67
2022-09-24T03:23:20.865Z,24.13
2022-09-24T03:25:47.857Z,22.83
2022-09-24T03:28:14.817Z,19.88
2022-09-24T03:31:00.218Z,19.15
2022-09-24T03:33:42.176Z,17.95
2022-09-24T03:36:21.033Z,20.27
2022-09-24T03:38:49.548Z,23.37
2022-09-24T03:41:17.363Z,19.52
2022-09-24T03:43:44.602Z,18.17
2022-09-24T03:46:12.959Z,20.65
2022-09-24T03:51:16.262Z,17.17
2022-09-24T03:53:43.300Z,18.30
2022-09-24T03:56:11.990Z,20.30
2022-09-24T03:58:39.573Z,22.13
2022-09-24T04:01:07.772Z,18.25
2022-09-24T04:03:36.265Z,16.38
2022-09-24T04:06:04.117Z,19.55
2022-09-24T04:08:31.786Z,17.67
2022-09-24T04:10:59.375Z,16.70
2022-09-24T04:13:26.384Z,18.08
2022-09-24T04:15:53.817Z,15.60
2022-09-24T04:22:39.494Z,16.55
2022-09-24T04:25:10.281Z,17.33
2022-09-24T04:27:41.604Z,14.25
2022-09-24T04:30:09.263Z,16.17
2022-09-24T04:32:36.207Z,14.77
2022-09-24T04:35:07.509Z,16.85
2022-09-24T04:37:34.993Z,24.00
2022-09-24T04:40:05.976Z,17.63
2022-09-24T04:42:32.964Z,17.38
2022-09-24T04:44:59.924Z,17.15
2022-09-24T04:47:26.845Z,18.45
2022-09-24T04:49:56.852Z,24.95
2022-09-24T04:52:26.825Z,17.02
2022-09-24T04:54:54.677Z,18.27
2022-09-24T04:57:22.432Z,19.52
2022-09-24T04:59:49.394Z,17.98
2022-09-24T05:02:17.088Z,17.40
2022-09-24T05:04:44.045Z,17.92
2022-09-24T05:07:11.596Z,19.27
2022-09-24T05:09:38.530Z,19.00
2022-09-24T05:12:05.953Z,18.80
2022-09-24T05:14:32.886Z,18.23
2022-09-24T05:16:59.836Z,16.63
2022-09-24T05:19:26.759Z,20.02
2022-09-24T05:21:53.687Z,21.15
2022-09-24T05:24:20.600Z,21.52
2022-09-24T05:27:05.890Z,23.95
2022-09-24T05:29:32.866Z,22.10
2022-09-24T05:32:02.864Z,21.25
2022-09-24T05:34:31.192Z,24.55
2022-09-24T05:36:58.354Z,26.17
2022-09-24T05:39:28.004Z,30.77
2022-09-24T05:41:58.684Z,28.88
2022-09-24T05:44:25.771Z,23.20
2022-09-24T05:46:53.244Z,25.75
2022-09-24T05:49:20.418Z,21.85
2022-09-24T05:51:51.395Z,24.98
2022-09-24T05:54:19.299Z,26.13
2022-09-24T05:56:46.661Z,24.10
2022-09-24T05:59:14.034Z,24.73
2022-09-24T06:01:41.137Z,21.10
2022-09-24T06:04:09.312Z,21.33
2022-09-24T06:06:36.463Z,22.02
2022-09-24T06:09:04.182Z,18.35
2022-09-24T06:11:40.351Z,22.63
2022-09-24T06:14:09.106Z,22.15
2022-09-24T06:16:36.482Z,23.55
2022-09-24T06:19:03.640Z,24.20
2022-09-24T06:21:30.581Z,23.67
2022-09-24T06:23:57.921Z,24.25
2022-09-24T06:26:26.398Z,21.85
2022-09-24T06:28:53.416Z,28.40
2022-09-24T06:31:20.654Z,26.23
2022-09-24T06:33:47.660Z,26.08
2022-09-24T06:36:14.802Z,25.00
2022-09-24T06:38:42.018Z,23.80
2022-09-24T06:41:10.226Z,23.70
2022-09-24T06:43:37.542Z,28.13
2022-09-24T06:46:05.047Z,30.52
2022-09-24T06:48:32.273Z,33.25
2022-09-24T06:50:59.434Z,26.55
2022-09-24T06:53:26.648Z,24.20
2022-09-24T06:56:03.370Z,21.08
2022-09-24T06:58:30.674Z,19.85
2022-09-24T07:01:02.447Z,20.67
2022-09-24T07:03:31.787Z,24.50
2022-09-24T07:06:04.412Z,21.73
2022-09-24T07:08:31.935Z,18.45
2022-09-24T07:11:00.292Z,19.30
2022-09-24T07:13:27.836Z,22.05
2022-09-24T07:15:54.838Z,19.98
2022-09-24T07:18:21.923Z,21.27
2022-09-24T07:20:56.306Z,20.60
2022-09-24T07:23:23.962Z,32.38
2022-09-24T07:25:55.340Z,26.83
2022-09-24T07:28:22.314Z,32.97
2022-09-24T07:30:57.460Z,27.77
2022-09-24T07:33:24.475Z,24.73
2022-09-24T07:35:51.419Z,22.63
2022-09-24T07:38:18.411Z,22.90
2022-09-24T07:40:45.441Z,19.60
2022-09-24T07:43:14.310Z,16.67
2022-09-24T07:45:43.564Z,14.60
2022-09-24T07:48:11.404Z,16.58
2022-09-24T07:50:41.151Z,15.52
2022-09-24T07:53:13.096Z,17.33
2022-09-24T07:55:41.361Z,19.63
2022-09-24T07:58:11.974Z,17.70
2022-09-24T08:00:39.065Z,16.88
2022-09-24T08:03:07.465Z,15.20
2022-09-24T08:05:34.629Z,16.40
2022-09-24T08:08:02.002Z,16.95
2022-09-24T08:10:29.177Z,20.48
2022-09-24T08:12:58.962Z,16.92
2022-09-24T08:15:26.032Z,18.77
2022-09-24T08:17:53.157Z,16.50
2022-09-24T08:20:21.127Z,19.67
2022-09-24T08:22:48.464Z,17.15
2022-09-24T08:25:15.447Z,16.40
2022-09-24T08:27:42.312Z,16.23
2022-09-24T08:30:09.784Z,17.02
2022-09-24T08:32:36.640Z,14.18
2022-09-24T08:35:03.798Z,13.40
2022-09-24T08:37:31.737Z,14.65
2022-09-24T08:39:58.648Z,17.25
2022-09-24T08:42:50.541Z,12.15
2022-09-24T08:45:36.458Z,16.80
2022-09-24T08:48:24.968Z,10.82
2022-09-24T08:51:01.301Z,14.95
2022-09-24T08:53:49.174Z,11.57
2022-09-24T08:56:22.154Z,13.55
2022-09-24T08:59:11.348Z,12.70
2022-09-24T09:01:44.617Z,13.35
2022-09-24T09:04:29.695Z,10.43
2022-09-24T09:07:11.051Z,12.93
2022-09-24T09:09:43.772Z,14.40
2022-09-24T09:13:03.245Z,12.55
2022-09-24T09:15:39.962Z,13.07
2022-09-24T09:18:32.775Z,12.88
2022-09-24T09:21:24.993Z,13.00
2022-09-24T09:30:59.016Z,11.75
2022-09-24T09:34:32.375Z,10.77
2022-09-24T09:37:05.142Z,10.38
2022-09-24T09:39:38.071Z,10.35
2022-09-24T09:42:26.770Z,12.18
2022-09-24T09:44:54.518Z,13.38
2022-09-24T09:47:27.328Z,11.20
2022-09-24T09:49:57.872Z,12.20
2022-09-24T09:52:40.052Z,12.20
2022-09-24T09:55:07.753Z,14.32
2022-09-24T09:57:38.717Z,13.57
2022-09-24T10:00:06.537Z,14.18
2022-09-24T10:02:43.610Z,13.98
2022-09-24T10:05:27.214Z,10.93
2022-09-24T10:07:58.183Z,9.85
2022-09-24T10:10:29.629Z,9.65
2022-09-24T10:13:12.429Z,14.25
2022-09-24T10:15:58.592Z,11.95
2022-09-24T10:18:50.199Z,9.32
2022-09-24T10:21:36.434Z,9.50
2022-09-24T10:24:07.207Z,8.05
2022-09-24T10:31:18.028Z,8.55
2022-09-24T10:33:49.483Z,8.27
2022-09-24T10:36:26.408Z,11.10
2022-09-24T10:39:08.595Z,10.32
2022-09-24T10:41:36.100Z,12.70
2022-09-24T10:44:13.996Z,10.30
2022-09-24T10:47:16.617Z,11.68
2022-09-24T10:54:20.565Z,10.98
2022-09-24T10:56:55.014Z,12.32
2022-09-24T10:59:34.467Z,13.50
2022-09-24T11:02:13.726Z,12.25
2022-09-24T11:05:48.678Z,10.25
2022-09-24T11:08:25.455Z,11.45
2022-09-24T11:11:17.811Z,11.38
2022-09-24T11:13:55.954Z,10.25
2022-09-24T11:16:39.039Z,10.55
2022-09-24T11:19:29.084Z,9.88
2022-09-24T11:22:20.243Z,8.32
2022-09-24T11:24:59.191Z,11.88
2022-09-24T11:27:47.072Z,9.27
2022-09-24T11:30:21.256Z,9.00
2022-09-24T11:33:15.111Z,11.43
2022-09-24T11:35:50.149Z,13.25
2022-09-24T11:38:41.689Z,8.05
2022-09-24T11:41:26.589Z,8.48
2022-09-24T11:44:21.395Z,8.52
2022-09-24T11:46:55.337Z,10.68
2022-09-24T11:49:43.431Z,8.85
2022-09-24T11:52:31.677Z,10.88
2022-09-24T11:55:19.938Z,12.13
2022-09-24T11:57:54.317Z,9.38
2022-09-24T12:04:56.776Z,9.00
2022-09-24T12:07:36.825Z,12.13
2022-09-24T12:10:25.547Z,11.57
2022-09-24T12:13:04.277Z,10.60
2022-09-24T12:15:45.932Z,10.60
2022-09-24T12:18:40.325Z,10.63
2022-09-24T12:21:59.492Z,12.63
2022-09-24T12:24:29.268Z,10.75
2022-09-24T12:29:54.450Z,10.10
2022-09-24T12:32:54.585Z,15.00
2022-09-24T12:35:33.665Z,12.35
2022-09-24T12:38:16.605Z,14.18
2022-09-24T12:41:09.338Z,14.27
2022-09-24T12:44:07.309Z,16.73
2022-09-24T12:46:41.904Z,11.88
2022-09-24T12:49:27.037Z,12.82
2022-09-24T12:51:59.463Z,13.15
2022-09-24T12:54:38.064Z,12.93
2022-09-24T13:01:32.445Z,14.60
2022-09-24T13:04:14.778Z,12.93
2022-09-24T13:06:45.048Z,12.50
2022-09-24T13:09:38.326Z,12.77
2022-09-24T13:12:18.116Z,16.13
2022-09-24T13:17:30.950Z,15.82
2022-09-24T13:20:01.026Z,12.95
2022-09-24T13:22:31.456Z,12.25
2022-09-24T13:25:07.834Z,12.48
2022-09-24T13:27:41.416Z,13.85
2022-09-24T13:30:26.380Z,13.20
2022-09-24T13:33:09.675Z,12.65
2022-09-24T13:36:13.784Z,12.80
2022-09-24T13:39:08.021Z,12.77
2022-09-24T13:41:40.981Z,14.40
2022-09-24T13:44:17.433Z,12.27
2022-09-24T13:46:47.166Z,11.20
2022-09-24T13:51:47.811Z,12.85
2022-09-24T13:54:23.581Z,15.82
2022-09-24T13:57:09.207Z,16.17
2022-09-24T13:59:36.222Z,14.80
2022-09-24T14:02:03.852Z,12.57
2022-09-24T14:04:31.271Z,13.93
2022-09-24T14:07:02.011Z,12.95
2022-09-24T14:09:33.223Z,13.10
2022-09-24T14:12:03.128Z,14.55
2022-09-24T14:14:31.140Z,13.88
2022-09-24T14:17:16.496Z,13.70
2022-09-24T14:19:43.653Z,12.63
2022-09-24T14:22:20.136Z,13.70
2022-09-24T14:25:13.833Z,16.15
2022-09-24T14:27:44.815Z,13.23
2022-09-24T14:30:27.116Z,16.20
2022-09-24T14:34:00.188Z,11.68
2022-09-24T14:36:29.330Z,12.30
2022-09-24T14:39:04.894Z,11.25
2022-09-24T14:41:36.467Z,12.52
2022-09-24T14:44:07.930Z,12.60
2022-09-24T14:46:48.804Z,12.52
2022-09-24T14:49:28.350Z,13.35
2022-09-24T14:52:01.366Z,11.77
2022-09-24T14:54:40.318Z,15.05
2022-09-24T14:57:19.456Z,13.73
2022-09-24T14:59:47.591Z,16.55
2022-09-24T15:02:37.284Z,14.52
2022-09-24T15:05:07.873Z,15.27
2022-09-24T15:07:35.526Z,15.38
2022-09-24T15:10:04.902Z,13.23
2022-09-24T15:12:35.088Z,13.48
2022-09-24T15:15:02.666Z,13.82
2022-09-24T15:17:31.000Z,16.83
2022-09-24T15:19:58.184Z,16.10
2022-09-24T15:22:27.017Z,14.55
2022-09-24T15:25:01.544Z,16.25
2022-09-24T15:31:47.988Z,17.48
2022-09-24T15:34:19.135Z,17.95
2022-09-24T15:36:48.895Z,14.95
2022-09-24T15:39:18.395Z,17.90
2022-09-24T15:41:45.366Z,17.15
2022-09-24T15:44:21.941Z,17.70
2022-09-24T15:46:51.242Z,17.75
2022-09-24T15:49:22.241Z,21.63
2022-09-24T15:51:59.812Z,19.58
2022-09-24T15:54:26.784Z,19.05
2022-09-24T15:56:54.567Z,21.90
2022-09-24T15:59:23.498Z,21.75
2022-09-24T16:01:54.309Z,31.53
2022-09-24T16:04:21.391Z,28.42
2022-09-24T16:06:49.582Z,24.25
2022-09-24T16:09:16.657Z,31.60
2022-09-24T16:11:43.599Z,31.30
2022-09-24T16:14:10.843Z,37.05
2022-09-24T16:16:41.294Z,32.95
2022-09-24T16:19:08.671Z,24.10
2022-09-24T16:21:36.133Z,19.23
2022-09-24T16:24:03.439Z,21.17
2022-09-24T16:26:31.179Z,22.00
2022-09-24T16:28:58.428Z,18.85
2022-09-24T16:31:25.460Z,26.75
2022-09-24T16:33:52.478Z,21.88
2022-09-24T16:36:19.637Z,25.67
2022-09-24T16:38:46.596Z,24.08
2022-09-24T16:41:13.497Z,20.33
2022-09-24T16:43:40.402Z,20.85
2022-09-24T16:46:09.555Z,16.92
2022-09-24T16:48:36.981Z,21.13
2022-09-24T16:51:11.665Z,20.13
2022-09-24T16:53:38.797Z,22.42
2022-09-24T16:56:11.140Z,24.80
2022-09-24T16:58:38.122Z,25.60
2022-09-24T17:01:07.394Z,23.85
2022-09-24T17:03:34.786Z,24.13
2022-09-24T17:07:12.967Z,24.67
2022-09-24T17:09:58.362Z,25.02
2022-09-24T17:12:25.358Z,23.10
2022-09-24T17:14:52.722Z,24.05
2022-09-24T17:17:20.177Z,22.50
2022-09-24T17:19:47.119Z,26.38
2022-09-24T17:22:14.076Z,25.17
2022-09-24T17:24:41.046Z,27.67
2022-09-24T17:27:08.254Z,27.40
2022-09-24T17:29:35.214Z,27.30
2022-09-24T17:32:02.365Z,28.67
2022-09-24T17:34:29.466Z,27.50
2022-09-24T17:36:57.126Z,26.77
2022-09-24T17:39:24.169Z,26.52
2022-09-24T17:41:51.439Z,27.95
2022-09-24T17:44:18.468Z,30.63
2022-09-24T17:46:45.644Z,30.13
2022-09-24T17:49:12.778Z,29.77
2022-09-24T17:51:40.206Z,31.85
2022-09-24T17:54:09.455Z,27.20
2022-09-24T17:56:39.249Z,27.13
2022-09-24T18:01:37.120Z,25.50
2022-09-24T18:04:07.430Z,28.27
2022-09-24T18:06:37.779Z,29.80
2022-09-24T18:09:05.453Z,28.60
2022-09-24T18:11:39.325Z,32.17
2022-09-24T18:14:06.345Z,32.42
2022-09-24T18:16:34.215Z,32.20
2022-09-24T18:19:02.892Z,32.78
2022-09-24T18:21:31.031Z,35.75
2022-09-24T18:23:59.736Z,38.35
2022-09-24T18:26:35.368Z,31.75
2022-09-24T18:29:14.630Z,35.35
2022-09-24T18:31:42.437Z,40.47
2022-09-24T18:34:13.238Z,38.90
2022-09-24T18:36:41.827Z,35.97
2022-09-24T18:39:14.743Z,34.80
2022-09-24T18:41:44.402Z,36.17
2022-09-24T18:44:11.617Z,36.58
2022-09-24T18:46:39.386Z,36.78
2022-09-24T18:49:06.607Z,34.22
2022-09-24T18:51:35.880Z,36.78
2022-09-24T18:54:08.488Z,35.30
2022-09-24T18:56:36.523Z,32.70
2022-09-24T18:59:09.745Z,34.13
2022-09-24T19:01:38.016Z,36.97
2022-09-24T19:04:06.209Z,33.28
2022-09-24T19:06:35.930Z,36.30
2022-09-24T19:09:05.020Z,33.13
2022-09-24T19:11:32.731Z,33.03
2022-09-24T19:13:59.707Z,37.35
2022-09-24T19:20:28.533Z,40.15
2022-09-24T19:23:00.262Z,43.20
2022-09-24T19:25:31.131Z,45.50
2022-09-24T19:27:58.102Z,41.38
2022-09-24T19:30:25.207Z,45.60
2022-09-24T19:32:52.177Z,43.63
2022-09-24T19:35:19.189Z,43.80
2022-09-24T19:37:46.241Z,44.10
2022-09-24T19:40:13.323Z,41.58
2022-09-24T19:42:40.278Z,44.00
2022-09-24T19:45:07.725Z,45.55
2022-09-24T19:47:34.719Z,44.20
2022-09-24T19:50:01.703Z,43.45
2022-09-24T19:52:28.726Z,41.65
2022-09-24T19:54:56.033Z,40.08
2022-09-24T20:01:35.764Z,37.17
2022-09-24T20:04:05.652Z,32.35
2022-09-24T20:06:34.712Z,35.88
2022-09-24T20:09:02.016Z,36.77
2022-09-24T20:11:32.622Z,37.03
2022-09-24T20:14:00.931Z,35.63
2022-09-24T20:16:32.674Z,33.97
2022-09-24T20:19:01.125Z,35.63
2022-09-24T20:21:32.860Z,35.63
2022-09-24T20:24:01.367Z,35.63
2022-09-24T20:26:46.835Z,36.05
2022-09-24T20:29:14.437Z,36.25
2022-09-24T20:31:42.754Z,40.70
2022-09-24T20:34:09.680Z,35.08
2022-09-24T20:36:36.620Z,34.63
2022-09-24T20:39:04.223Z,33.35
2022-09-24T20:41:31.213Z,34.58
2022-09-24T20:43:58.202Z,34.22
2022-09-24T20:46:28.697Z,35.17
2022-09-24T20:49:00.046Z,29.63
2022-09-24T20:51:33.627Z,32.63
2022-09-24T20:54:01.700Z,32.35
2022-09-24T20:56:30.801Z,29.33
2022-09-24T20:58:58.726Z,34.05
2022-09-24T21:05:44.830Z,28.33
2022-09-24T21:08:13.487Z,32.28
2022-09-24T21:10:40.536Z,35.35
2022-09-24T21:13:08.175Z,29.63
2022-09-24T21:15:35.728Z,32.10
2022-09-24T21:18:22.267Z,30.98
2022-09-24T21:20:49.980Z,28.67
2022-09-24T21:23:17.459Z,32.10
2022-09-24T21:25:57.924Z,31.63
2022-09-24T21:28:24.877Z,35.15
2022-09-24T21:31:03.422Z,35.42
2022-09-24T21:33:31.463Z,36.20
2022-09-24T21:36:03.557Z,32.70
2022-09-24T21:38:31.019Z,34.40
2022-09-24T21:40:58.411Z,35.63
2022-09-24T21:43:28.630Z,30.60
2022-09-24T21:46:05.071Z,29.80
2022-09-24T21:48:33.889Z,33.00
2022-09-24T21:51:06.050Z,32.97
2022-09-24T21:53:33.819Z,35.63
2022-09-24T21:56:01.394Z,34.65
2022-09-24T21:58:29.789Z,33.90
2022-09-24T22:01:03.173Z,34.97
2022-09-24T22:03:31.996Z,34.17
2022-09-24T22:06:03.533Z,34.20
2022-09-24T22:08:31.922Z,32.92
2022-09-24T22:11:08.760Z,34.42
2022-09-24T22:13:39.420Z,35.55
2022-09-24T22:16:08.727Z,37.53
2022-09-24T22:18:37.355Z,38.25
2022-09-24T22:21:10.071Z,45.45
2022-09-24T22:23:37.035Z,46.53
2022-09-24T22:26:05.027Z,48.60
2022-09-24T22:28:32.447Z,48.15
2022-09-24T22:31:03.240Z,45.00
2022-09-24T22:33:49.186Z,42.67
2022-09-24T22:36:16.650Z,43.70
2022-09-24T22:38:43.784Z,38.95
2022-09-24T22:41:12.144Z,38.25
2022-09-24T22:43:39.852Z,38.72
2022-09-24T22:46:09.533Z,35.80
2022-09-24T22:48:37.543Z,35.42
2022-09-24T22:55:30.319Z,33.05
2022-09-24T22:57:57.270Z,33.15
2022-09-24T23:00:24.270Z,33.65
2022-09-24T23:02:51.167Z,34.72
2022-09-24T23:05:18.226Z,30.80
2022-09-24T23:07:45.246Z,35.92
2022-09-24T23:10:12.455Z,34.78
2022-09-24T23:12:39.506Z,40.90
2022-09-24T23:15:07.156Z,44.08
2022-09-24T23:17:37.796Z,41.53
2022-09-24T23:20:08.684Z,36.85
2022-09-24T23:22:35.634Z,44.35
2022-09-24T23:25:02.710Z,38.13
2022-09-24T23:27:31.899Z,43.03
2022-09-24T23:30:00.730Z,44.28
2022-09-24T23:32:28.221Z,352.17
2022-09-24T23:34:55.089Z,261.70
2022-09-24T23:37:22.065Z,208.02
2022-09-24T23:39:49.010Z,138.82
2022-09-24T23:42:15.953Z,173.10
2022-09-24T23:44:43.155Z,185.43
2022-09-24T23:47:10.106Z,122.05
2022-09-24T23:49:37.066Z,159.27
2022-09-24T23:52:03.977Z,138.55
2022-09-24T23:54:31.167Z,126.38
2022-09-24T23:56:58.119Z,109.10
2022-09-24T23:59:25.053Z,107.65
